createdAt,value
2023-03-17T00:00:16.849Z,1012.103
2023-03-17T00:00:46.865Z,1012.104
2023-03-17T00:01:16.860Z,1012.105
2023-03-17T00:01:46.845Z,1012.111
2023-03-17T00:02:16.886Z,1012.11
2023-03-17T00:02:46.918Z,1012.115
2023-03-17T00:03:16.867Z,1012.108
2023-03-17T00:03:46.874Z,1012.106
2023-03-17T00:04:16.849Z,1012.1
2023-03-17T00:04:46.844Z,1012.089
2023-03-17T00:05:16.842Z,1012.088
2023-03-17T00:05:46.852Z,1012.083
2023-03-17T00:06:16.846Z,1012.073
2023-03-17T00:06:46.845Z,1012.066
2023-03-17T00:07:16.843Z,1012.064
2023-03-17T00:07:46.846Z,1012.054
2023-03-17T00:08:16.847Z,1012.047
2023-03-17T00:08:46.845Z,1012.05
2023-03-17T00:09:16.842Z,1012.038
2023-03-17T00:09:46.846Z,1012.033
2023-03-17T00:10:16.845Z,1012.027
2023-03-17T00:10:46.892Z,1012.015
2023-03-17T00:11:16.873Z,1012.005
2023-03-17T00:11:46.846Z,1011.989
2023-03-17T00:12:16.841Z,1011.984
2023-03-17T00:12:46.840Z,1011.976
2023-03-17T00:13:16.846Z,1011.963
2023-03-17T00:13:46.846Z,1011.968
2023-03-17T00:14:16.866Z,1011.964
2023-03-17T00:14:46.868Z,1011.969
2023-03-17T00:15:16.844Z,1011.974
2023-03-17T00:15:46.866Z,1011.968
2023-03-17T00:16:17.029Z,1011.976
2023-03-17T00:16:46.842Z,1011.971
2023-03-17T00:17:16.846Z,1011.968
2023-03-17T00:17:46.844Z,1011.965
2023-03-17T00:18:16.846Z,1011.966
2023-03-17T00:18:46.855Z,1011.975
2023-03-17T00:19:16.849Z,1011.974
2023-03-17T00:19:46.848Z,1011.97
2023-03-17T00:20:16.849Z,1011.969
2023-03-17T00:20:46.857Z,1011.96
2023-03-17T00:21:16.862Z,1011.952
2023-03-17T00:21:46.854Z,1011.939
2023-03-17T00:22:16.850Z,1011.934
2023-03-17T00:22:46.845Z,1011.923
2023-03-17T00:23:16.861Z,1011.924
2023-03-17T00:23:46.849Z,1011.917
2023-03-17T00:24:16.850Z,1011.911
2023-03-17T00:24:46.850Z,1011.91
2023-03-17T00:25:16.856Z,1011.908
2023-03-17T00:25:46.870Z,1011.915
2023-03-17T00:26:16.857Z,1011.908
2023-03-17T00:26:46.854Z,1011.911
2023-03-17T00:27:16.844Z,1011.896
2023-03-17T00:27:46.844Z,1011.891
2023-03-17T00:28:16.853Z,1011.887
2023-03-17T00:28:46.847Z,1011.873
2023-03-17T00:29:16.846Z,1011.865
2023-03-17T00:29:46.847Z,1011.857
2023-03-17T00:30:16.860Z,1011.864
2023-03-17T00:30:46.853Z,1011.843
2023-03-17T00:31:17.017Z,1011.846
2023-03-17T00:31:46.879Z,1011.847
2023-03-17T00:32:16.845Z,1011.848
2023-03-17T00:32:46.935Z,1011.846
2023-03-17T00:33:16.865Z,1011.852
2023-03-17T00:33:46.847Z,1011.851
2023-03-17T00:34:16.871Z,1011.862
2023-03-17T00:34:46.848Z,1011.872
2023-03-17T00:35:16.850Z,1011.87
2023-03-17T00:35:46.862Z,1011.877
2023-03-17T00:36:16.854Z,1011.883
2023-03-17T00:36:46.846Z,1011.883
2023-03-17T00:37:16.847Z,1011.882
2023-03-17T00:37:46.847Z,1011.881
2023-03-17T00:38:16.849Z,1011.889
2023-03-17T00:38:46.846Z,1011.889
2023-03-17T00:39:47.722Z,1011.897
2023-03-17T00:40:16.857Z,1011.89
2023-03-17T00:41:17.588Z,1011.894
2023-03-17T00:42:17.696Z,1011.897
2023-03-17T00:42:46.846Z,1011.888
2023-03-17T00:43:16.846Z,1011.876
2023-03-17T00:43:46.846Z,1011.88
2023-03-17T00:44:16.844Z,1011.883
2023-03-17T00:44:46.844Z,1011.875
2023-03-17T00:45:16.847Z,1011.873
2023-03-17T00:45:46.865Z,1011.872
2023-03-17T00:46:16.906Z,1011.871
2023-03-17T00:46:46.899Z,1011.865
2023-03-17T00:47:16.865Z,1011.853
2023-03-17T00:47:46.850Z,1011.848
2023-03-17T00:48:16.845Z,1011.845
2023-03-17T00:48:46.849Z,1011.841
2023-03-17T00:49:47.784Z,1011.841
2023-03-17T00:50:16.850Z,1011.839
2023-03-17T00:50:46.850Z,1011.833
2023-03-17T00:51:16.849Z,1011.827
2023-03-17T00:51:46.849Z,1011.83
2023-03-17T00:52:16.857Z,1011.827
2023-03-17T00:52:46.862Z,1011.835
2023-03-17T00:53:16.844Z,1011.839
2023-03-17T00:53:46.848Z,1011.853
2023-03-17T00:54:16.860Z,1011.856
2023-03-17T00:54:46.856Z,1011.87
2023-03-17T00:55:16.849Z,1011.871
2023-03-17T00:55:46.854Z,1011.874
2023-03-17T00:56:16.842Z,1011.876
2023-03-17T00:56:46.848Z,1011.87
2023-03-17T00:57:16.846Z,1011.873
2023-03-17T00:57:46.845Z,1011.875
2023-03-17T00:58:16.843Z,1011.872
2023-03-17T00:58:46.844Z,1011.882
2023-03-17T00:59:19.178Z,1011.89
2023-03-17T00:59:46.844Z,1011.888
2023-03-17T01:00:16.846Z,1011.884
2023-03-17T01:00:46.923Z,1011.894
2023-03-17T01:01:16.889Z,1011.889
2023-03-17T01:01:46.850Z,1011.892
2023-03-17T01:02:16.903Z,1011.891
2023-03-17T01:02:46.846Z,1011.891
2023-03-17T01:03:16.847Z,1011.889
2023-03-17T01:03:46.861Z,1011.893
2023-03-17T01:04:16.856Z,1011.9
2023-03-17T01:04:52.889Z,1011.889
2023-03-17T01:05:18.798Z,1011.882
2023-03-17T01:05:46.851Z,1011.88
2023-03-17T01:06:16.847Z,1011.89
2023-03-17T01:06:46.848Z,1011.886
2023-03-17T01:07:16.856Z,1011.88
2023-03-17T01:07:46.853Z,1011.874
2023-03-17T01:08:16.851Z,1011.869
2023-03-17T01:08:46.848Z,1011.86
2023-03-17T01:09:16.860Z,1011.847
2023-03-17T01:09:46.850Z,1011.839
2023-03-17T01:10:16.845Z,1011.839
2023-03-17T01:10:46.845Z,1011.85
2023-03-17T01:11:16.844Z,1011.849
2023-03-17T01:11:46.846Z,1011.853
2023-03-17T01:12:16.842Z,1011.858
2023-03-17T01:12:46.849Z,1011.863
2023-03-17T01:13:16.851Z,1011.873
2023-03-17T01:13:46.926Z,1011.872
2023-03-17T01:14:16.879Z,1011.871
2023-03-17T01:14:46.847Z,1011.878
2023-03-17T01:15:16.849Z,1011.884
2023-03-17T01:15:46.850Z,1011.876
2023-03-17T01:16:16.904Z,1011.888
2023-03-17T01:16:46.871Z,1011.893
2023-03-17T01:17:16.843Z,1011.902
2023-03-17T01:17:46.849Z,1011.897
2023-03-17T01:18:16.870Z,1011.887
2023-03-17T01:18:46.900Z,1011.874
2023-03-17T01:19:16.920Z,1011.865
2023-03-17T01:19:46.852Z,1011.855
2023-03-17T01:20:16.852Z,1011.848
2023-03-17T01:20:46.846Z,1011.849
2023-03-17T01:21:16.852Z,1011.844
2023-03-17T01:21:46.848Z,1011.845
2023-03-17T01:22:16.853Z,1011.858
2023-03-17T01:22:46.845Z,1011.857
2023-03-17T01:23:16.854Z,1011.856
2023-03-17T01:23:46.848Z,1011.846
2023-03-17T01:24:16.851Z,1011.853
2023-03-17T01:24:46.859Z,1011.851
2023-03-17T01:25:16.848Z,1011.847
2023-03-17T01:25:46.882Z,1011.846
2023-03-17T01:26:16.847Z,1011.834
2023-03-17T01:26:46.877Z,1011.84
2023-03-17T01:27:16.849Z,1011.838
2023-03-17T01:27:46.857Z,1011.848
2023-03-17T01:28:16.847Z,1011.854
2023-03-17T01:28:46.848Z,1011.869
2023-03-17T01:29:16.887Z,1011.894
2023-03-17T01:29:46.847Z,1011.903
2023-03-17T01:30:16.850Z,1011.918
2023-03-17T01:30:46.880Z,1011.925
2023-03-17T01:31:16.861Z,1011.919
2023-03-17T01:31:46.914Z,1011.915
2023-03-17T01:32:16.851Z,1011.917
2023-03-17T01:32:46.890Z,1011.929
2023-03-17T01:33:16.852Z,1011.943
2023-03-17T01:33:46.855Z,1011.942
2023-03-17T01:34:16.862Z,1011.943
2023-03-17T01:34:46.867Z,1011.944
2023-03-17T01:35:16.852Z,1011.936
2023-03-17T01:35:46.913Z,1011.942
2023-03-17T01:36:16.855Z,1011.935
2023-03-17T01:36:46.859Z,1011.933
2023-03-17T01:37:16.858Z,1011.913
2023-03-17T01:37:46.853Z,1011.915
2023-03-17T01:38:16.852Z,1011.909
2023-03-17T01:38:46.851Z,1011.908
2023-03-17T01:39:16.860Z,1011.904
2023-03-17T01:39:46.850Z,1011.89
2023-03-17T01:40:16.855Z,1011.87
2023-03-17T01:40:46.864Z,1011.864
2023-03-17T01:41:16.853Z,1011.857
2023-03-17T01:41:46.855Z,1011.856
2023-03-17T01:42:16.850Z,1011.856
2023-03-17T01:42:46.854Z,1011.862
2023-03-17T01:43:16.852Z,1011.866
2023-03-17T01:43:46.850Z,1011.873
2023-03-17T01:44:16.926Z,1011.852
2023-03-17T01:44:46.856Z,1011.837
2023-03-17T01:45:16.850Z,1011.831
2023-03-17T01:45:46.872Z,1011.825
2023-03-17T01:46:16.848Z,1011.836
2023-03-17T01:46:46.850Z,1011.841
2023-03-17T01:47:16.858Z,1011.823
2023-03-17T01:47:46.854Z,1011.822
2023-03-17T01:48:16.863Z,1011.818
2023-03-17T01:48:46.852Z,1011.812
2023-03-17T01:49:16.856Z,1011.805
2023-03-17T01:49:46.847Z,1011.799
2023-03-17T01:50:16.860Z,1011.793
2023-03-17T01:50:46.852Z,1011.795
2023-03-17T01:51:16.862Z,1011.802
2023-03-17T01:51:46.851Z,1011.804
2023-03-17T01:52:16.856Z,1011.805
2023-03-17T01:52:46.857Z,1011.808
2023-03-17T01:53:16.851Z,1011.8
2023-03-17T01:53:46.860Z,1011.79
2023-03-17T01:54:16.858Z,1011.782
2023-03-17T01:54:46.853Z,1011.776
2023-03-17T01:55:16.848Z,1011.773
2023-03-17T01:55:46.850Z,1011.775
2023-03-17T01:56:16.864Z,1011.78
2023-03-17T01:56:46.850Z,1011.788
2023-03-17T01:57:16.863Z,1011.796
2023-03-17T01:57:46.849Z,1011.795
2023-03-17T01:58:16.863Z,1011.799
2023-03-17T01:58:46.860Z,1011.792
2023-03-17T01:59:16.854Z,1011.798
2023-03-17T01:59:46.877Z,1011.79
2023-03-17T02:00:16.878Z,1011.782
2023-03-17T02:00:46.868Z,1011.78
2023-03-17T02:01:16.897Z,1011.78
2023-03-17T02:01:46.851Z,1011.782
2023-03-17T02:02:16.860Z,1011.781
2023-03-17T02:02:46.857Z,1011.778
2023-03-17T02:03:16.854Z,1011.775
2023-03-17T02:03:46.883Z,1011.776
2023-03-17T02:04:16.911Z,1011.767
2023-03-17T02:04:46.861Z,1011.774
2023-03-17T02:05:16.869Z,1011.782
2023-03-17T02:05:46.851Z,1011.782
2023-03-17T02:06:16.855Z,1011.786
2023-03-17T02:06:57.348Z,1011.793
2023-03-17T02:07:17.686Z,1011.791
2023-03-17T02:07:46.858Z,1011.792
2023-03-17T02:08:16.861Z,1011.795
2023-03-17T02:08:46.856Z,1011.795
2023-03-17T02:09:16.861Z,1011.794
2023-03-17T02:09:46.859Z,1011.798
2023-03-17T02:10:16.853Z,1011.794
2023-03-17T02:10:46.856Z,1011.783
2023-03-17T02:11:16.855Z,1011.772
2023-03-17T02:11:46.875Z,1011.762
2023-03-17T02:12:16.851Z,1011.756
2023-03-17T02:12:46.851Z,1011.749
2023-03-17T02:13:16.878Z,1011.745
2023-03-17T02:13:46.851Z,1011.737
2023-03-17T02:14:16.850Z,1011.738
2023-03-17T02:14:46.859Z,1011.728
2023-03-17T02:15:16.851Z,1011.723
2023-03-17T02:15:46.859Z,1011.716
2023-03-17T02:16:16.931Z,1011.697
2023-03-17T02:16:46.914Z,1011.69
2023-03-17T02:17:16.904Z,1011.684
2023-03-17T02:17:46.860Z,1011.684
2023-03-17T02:18:16.862Z,1011.683
2023-03-17T02:18:46.864Z,1011.679
2023-03-17T02:19:16.849Z,1011.677
2023-03-17T02:19:46.852Z,1011.679
2023-03-17T02:20:16.858Z,1011.688
2023-03-17T02:20:46.871Z,1011.691
2023-03-17T02:21:16.862Z,1011.693
2023-03-17T02:21:46.855Z,1011.696
2023-03-17T02:22:16.857Z,1011.689
2023-03-17T02:22:46.853Z,1011.685
2023-03-17T02:23:16.858Z,1011.677
2023-03-17T02:23:46.853Z,1011.679
2023-03-17T02:24:16.859Z,1011.692
2023-03-17T02:24:46.856Z,1011.691
2023-03-17T02:25:16.856Z,1011.689
2023-03-17T02:25:46.863Z,1011.683
2023-03-17T02:26:16.855Z,1011.678
2023-03-17T02:26:46.856Z,1011.697
2023-03-17T02:27:16.856Z,1011.702
2023-03-17T02:27:46.866Z,1011.69
2023-03-17T02:28:16.852Z,1011.684
2023-03-17T02:28:46.851Z,1011.688
2023-03-17T02:29:16.851Z,1011.689
2023-03-17T02:29:46.852Z,1011.696
2023-03-17T02:30:16.883Z,1011.706
2023-03-17T02:30:46.916Z,1011.714
2023-03-17T02:31:16.916Z,1011.721
2023-03-17T02:31:46.860Z,1011.722
2023-03-17T02:32:16.862Z,1011.736
2023-03-17T02:32:46.904Z,1011.729
2023-03-17T02:33:16.855Z,1011.734
2023-03-17T02:33:46.854Z,1011.748
2023-03-17T02:34:16.859Z,1011.753
2023-03-17T02:34:46.859Z,1011.756
2023-03-17T02:35:16.859Z,1011.751
2023-03-17T02:35:46.910Z,1011.75
2023-03-17T02:36:16.898Z,1011.754
2023-03-17T02:36:47.050Z,1011.755
2023-03-17T02:37:16.859Z,1011.758
2023-03-17T02:37:46.882Z,1011.758
2023-03-17T02:38:16.863Z,1011.751
2023-03-17T02:38:46.856Z,1011.75
2023-03-17T02:39:16.855Z,1011.759
2023-03-17T02:39:46.869Z,1011.766
2023-03-17T02:40:16.877Z,1011.756
2023-03-17T02:40:46.854Z,1011.758
2023-03-17T02:41:16.855Z,1011.758
2023-03-17T02:41:46.861Z,1011.753
2023-03-17T02:42:16.875Z,1011.751
2023-03-17T02:42:46.872Z,1011.741
2023-03-17T02:43:16.859Z,1011.731
2023-03-17T02:43:46.857Z,1011.73
2023-03-17T02:44:16.856Z,1011.731
2023-03-17T02:44:46.862Z,1011.736
2023-03-17T02:45:16.859Z,1011.736
2023-03-17T02:45:46.910Z,1011.736
2023-03-17T02:46:16.948Z,1011.726
2023-03-17T02:46:46.864Z,1011.726
2023-03-17T02:47:16.867Z,1011.737
2023-03-17T02:47:46.863Z,1011.734
2023-03-17T02:48:16.867Z,1011.738
2023-03-17T02:48:46.871Z,1011.727
2023-03-17T02:49:16.861Z,1011.733
2023-03-17T02:49:46.869Z,1011.731
2023-03-17T02:50:16.873Z,1011.74
2023-03-17T02:50:46.867Z,1011.736
2023-03-17T02:51:16.869Z,1011.741
2023-03-17T02:51:46.858Z,1011.746
2023-03-17T02:52:16.868Z,1011.745
2023-03-17T02:52:46.869Z,1011.745
2023-03-17T02:53:16.867Z,1011.742
2023-03-17T02:53:46.871Z,1011.74
2023-03-17T02:54:16.864Z,1011.737
2023-03-17T02:54:46.863Z,1011.736
2023-03-17T02:55:16.864Z,1011.735
2023-03-17T02:55:46.871Z,1011.737
2023-03-17T02:56:16.872Z,1011.745
2023-03-17T02:56:46.867Z,1011.747
2023-03-17T02:57:16.867Z,1011.744
2023-03-17T02:57:46.863Z,1011.755
2023-03-17T02:58:16.863Z,1011.761
2023-03-17T02:58:46.861Z,1011.761
2023-03-17T02:59:16.862Z,1011.755
2023-03-17T02:59:46.871Z,1011.757
2023-03-17T03:00:16.861Z,1011.753
2023-03-17T03:00:46.882Z,1011.753
2023-03-17T03:01:16.901Z,1011.749
2023-03-17T03:01:46.918Z,1011.741
2023-03-17T03:02:16.964Z,1011.746
2023-03-17T03:02:46.929Z,1011.74
2023-03-17T03:03:16.865Z,1011.731
2023-03-17T03:03:46.863Z,1011.73
2023-03-17T03:04:16.864Z,1011.727
2023-03-17T03:04:46.864Z,1011.723
2023-03-17T03:05:16.862Z,1011.723
2023-03-17T03:05:46.883Z,1011.725
2023-03-17T03:06:16.879Z,1011.719
2023-03-17T03:06:46.895Z,1011.711
2023-03-17T03:07:16.866Z,1011.706
2023-03-17T03:07:46.877Z,1011.689
2023-03-17T03:08:16.864Z,1011.675
2023-03-17T03:08:46.869Z,1011.676
2023-03-17T03:09:16.866Z,1011.671
2023-03-17T03:09:46.870Z,1011.661
2023-03-17T03:10:16.867Z,1011.652
2023-03-17T03:10:46.881Z,1011.648
2023-03-17T03:11:16.863Z,1011.645
2023-03-17T03:11:46.867Z,1011.644
2023-03-17T03:12:16.880Z,1011.622
2023-03-17T03:12:46.865Z,1011.623
2023-03-17T03:13:16.871Z,1011.611
2023-03-17T03:13:46.866Z,1011.613
2023-03-17T03:14:16.867Z,1011.6
2023-03-17T03:14:46.870Z,1011.604
2023-03-17T03:15:16.865Z,1011.598
2023-03-17T03:15:46.909Z,1011.591
2023-03-17T03:16:16.950Z,1011.597
2023-03-17T03:16:46.868Z,1011.601
2023-03-17T03:17:16.868Z,1011.604
2023-03-17T03:17:46.865Z,1011.6
2023-03-17T03:18:16.866Z,1011.598
2023-03-17T03:18:46.866Z,1011.596
2023-03-17T03:19:16.887Z,1011.582
2023-03-17T03:19:46.898Z,1011.562
2023-03-17T03:20:16.888Z,1011.567
2023-03-17T03:20:46.876Z,1011.555
2023-03-17T03:21:16.865Z,1011.559
2023-03-17T03:21:46.868Z,1011.558
2023-03-17T03:22:16.864Z,1011.554
2023-03-17T03:22:46.863Z,1011.542
2023-03-17T03:23:16.866Z,1011.531
2023-03-17T03:23:46.898Z,1011.528
2023-03-17T03:24:16.863Z,1011.529
2023-03-17T03:24:46.876Z,1011.528
2023-03-17T03:25:16.871Z,1011.532
2023-03-17T03:25:46.869Z,1011.518
2023-03-17T03:26:16.873Z,1011.523
2023-03-17T03:26:46.875Z,1011.515
2023-03-17T03:27:16.884Z,1011.515
2023-03-17T03:27:46.896Z,1011.517
2023-03-17T03:28:16.866Z,1011.506
2023-03-17T03:28:46.865Z,1011.497
2023-03-17T03:29:16.894Z,1011.491
2023-03-17T03:29:46.870Z,1011.497
2023-03-17T03:30:16.867Z,1011.495
2023-03-17T03:30:46.919Z,1011.494
2023-03-17T03:31:16.928Z,1011.501
2023-03-17T03:31:46.866Z,1011.495
2023-03-17T03:32:16.864Z,1011.499
2023-03-17T03:32:46.982Z,1011.49
2023-03-17T03:33:16.872Z,1011.479
2023-03-17T03:33:46.868Z,1011.474
2023-03-17T03:34:16.867Z,1011.469
2023-03-17T03:34:46.882Z,1011.455
2023-03-17T03:35:16.872Z,1011.448
2023-03-17T03:35:46.922Z,1011.441
2023-03-17T03:36:16.869Z,1011.434
2023-03-17T03:36:46.883Z,1011.431
2023-03-17T03:37:16.870Z,1011.431
2023-03-17T03:37:46.874Z,1011.427
2023-03-17T03:38:16.884Z,1011.425
2023-03-17T03:38:46.881Z,1011.428
2023-03-17T03:39:16.876Z,1011.412
2023-03-17T03:39:46.876Z,1011.416
2023-03-17T03:40:16.868Z,1011.409
2023-03-17T03:40:46.879Z,1011.412
2023-03-17T03:41:16.874Z,1011.406
2023-03-17T03:41:46.879Z,1011.409
2023-03-17T03:42:16.869Z,1011.415
2023-03-17T03:42:46.870Z,1011.417
2023-03-17T03:43:23.363Z,1011.418
2023-03-17T03:43:47.908Z,1011.413
2023-03-17T03:44:16.874Z,1011.416
2023-03-17T03:44:46.867Z,1011.439
2023-03-17T03:45:16.873Z,1011.447
2023-03-17T03:45:46.914Z,1011.451
2023-03-17T03:46:16.978Z,1011.448
2023-03-17T03:46:46.910Z,1011.449
2023-03-17T03:47:16.868Z,1011.448
2023-03-17T03:47:46.878Z,1011.45
2023-03-17T03:48:16.906Z,1011.453
2023-03-17T03:48:46.862Z,1011.463
2023-03-17T03:49:16.870Z,1011.464
2023-03-17T03:49:46.872Z,1011.473
2023-03-17T03:50:16.893Z,1011.471
2023-03-17T03:50:46.923Z,1011.48
2023-03-17T03:51:16.872Z,1011.482
2023-03-17T03:51:46.873Z,1011.484
2023-03-17T03:52:16.864Z,1011.485
2023-03-17T03:52:46.870Z,1011.483
2023-03-17T03:53:16.868Z,1011.486
2023-03-17T03:53:46.867Z,1011.475
2023-03-17T03:54:16.864Z,1011.474
2023-03-17T03:54:46.877Z,1011.475
2023-03-17T03:55:16.868Z,1011.48
2023-03-17T03:55:46.877Z,1011.475
2023-03-17T03:56:16.866Z,1011.475
2023-03-17T03:56:46.868Z,1011.463
2023-03-17T03:57:16.867Z,1011.465
2023-03-17T03:57:46.867Z,1011.475
2023-03-17T03:58:16.876Z,1011.465
2023-03-17T03:58:46.866Z,1011.46
2023-03-17T03:59:16.872Z,1011.467
2023-03-17T03:59:46.867Z,1011.467
2023-03-17T04:00:16.871Z,1011.482
2023-03-17T04:00:46.891Z,1011.491
2023-03-17T04:01:16.873Z,1011.482
2023-03-17T04:01:46.867Z,1011.488
2023-03-17T04:02:16.865Z,1011.483
2023-03-17T04:02:47.044Z,1011.482
2023-03-17T04:03:16.870Z,1011.474
2023-03-17T04:03:46.867Z,1011.471
2023-03-17T04:04:16.867Z,1011.463
2023-03-17T04:04:46.949Z,1011.463
2023-03-17T04:05:16.866Z,1011.46
2023-03-17T04:05:46.867Z,1011.461
2023-03-17T04:06:16.876Z,1011.46
2023-03-17T04:06:46.878Z,1011.46
2023-03-17T04:07:16.901Z,1011.45
2023-03-17T04:07:46.864Z,1011.439
2023-03-17T04:08:16.862Z,1011.438
2023-03-17T04:08:46.866Z,1011.432
2023-03-17T04:09:16.867Z,1011.422
2023-03-17T04:09:46.872Z,1011.424
2023-03-17T04:10:16.869Z,1011.414
2023-03-17T04:10:46.864Z,1011.409
2023-03-17T04:11:16.864Z,1011.414
2023-03-17T04:11:46.872Z,1011.411
2023-03-17T04:12:16.865Z,1011.414
2023-03-17T04:12:46.872Z,1011.41
2023-03-17T04:13:16.871Z,1011.416
2023-03-17T04:13:46.865Z,1011.414
2023-03-17T04:14:16.868Z,1011.42
2023-03-17T04:14:46.878Z,1011.419
2023-03-17T04:15:16.892Z,1011.423
2023-03-17T04:15:46.910Z,1011.429
2023-03-17T04:16:16.895Z,1011.434
2023-03-17T04:16:46.867Z,1011.443
2023-03-17T04:17:16.865Z,1011.433
2023-03-17T04:17:46.868Z,1011.427
2023-03-17T04:18:16.874Z,1011.418
2023-03-17T04:18:46.938Z,1011.417
2023-03-17T04:19:16.884Z,1011.413
2023-03-17T04:19:46.870Z,1011.418
2023-03-17T04:20:16.864Z,1011.423
2023-03-17T04:20:46.879Z,1011.427
2023-03-17T04:21:16.871Z,1011.433
2023-03-17T04:21:46.873Z,1011.441
2023-03-17T04:22:16.865Z,1011.444
2023-03-17T04:22:46.876Z,1011.451
2023-03-17T04:23:16.866Z,1011.444
2023-03-17T04:23:46.866Z,1011.447
2023-03-17T04:24:16.870Z,1011.453
2023-03-17T04:24:46.875Z,1011.454
2023-03-17T04:25:16.874Z,1011.458
2023-03-17T04:25:46.870Z,1011.45
2023-03-17T04:26:16.868Z,1011.448
2023-03-17T04:26:46.880Z,1011.434
2023-03-17T04:27:16.890Z,1011.428
2023-03-17T04:27:46.871Z,1011.428
2023-03-17T04:28:16.866Z,1011.43
2023-03-17T04:28:46.872Z,1011.428
2023-03-17T04:29:16.873Z,1011.424
2023-03-17T04:29:46.865Z,1011.427
2023-03-17T04:30:17.167Z,1011.422
2023-03-17T04:30:46.868Z,1011.415
2023-03-17T04:31:16.927Z,1011.404
2023-03-17T04:31:46.910Z,1011.41
2023-03-17T04:32:16.868Z,1011.42
2023-03-17T04:32:46.907Z,1011.416
2023-03-17T04:33:16.867Z,1011.433
2023-03-17T04:33:46.885Z,1011.445
2023-03-17T04:34:16.875Z,1011.444
2023-03-17T04:34:46.885Z,1011.442
2023-03-17T04:35:16.866Z,1011.436
2023-03-17T04:35:46.943Z,1011.419
2023-03-17T04:36:16.865Z,1011.405
2023-03-17T04:36:46.880Z,1011.403
2023-03-17T04:37:16.873Z,1011.414
2023-03-17T04:37:46.871Z,1011.407
2023-03-17T04:38:16.881Z,1011.41
2023-03-17T04:38:46.870Z,1011.397
2023-03-17T04:39:16.867Z,1011.388
2023-03-17T04:39:46.874Z,1011.398
2023-03-17T04:40:16.867Z,1011.397
2023-03-17T04:40:46.869Z,1011.411
2023-03-17T04:41:16.873Z,1011.42
2023-03-17T04:41:46.872Z,1011.42
2023-03-17T04:42:16.870Z,1011.414
2023-03-17T04:42:46.869Z,1011.406
2023-03-17T04:43:16.871Z,1011.41
2023-03-17T04:43:46.878Z,1011.413
2023-03-17T04:44:16.872Z,1011.413
2023-03-17T04:44:46.874Z,1011.42
2023-03-17T04:45:16.883Z,1011.414
2023-03-17T04:45:46.914Z,1011.415
2023-03-17T04:46:16.937Z,1011.421
2023-03-17T04:46:46.883Z,1011.419
2023-03-17T04:47:16.873Z,1011.411
2023-03-17T04:47:46.873Z,1011.406
2023-03-17T04:48:16.891Z,1011.382
2023-03-17T04:48:46.891Z,1011.367
2023-03-17T04:49:16.876Z,1011.362
2023-03-17T04:49:46.879Z,1011.333
2023-03-17T04:50:16.869Z,1011.318
2023-03-17T04:50:46.871Z,1011.308
2023-03-17T04:51:16.866Z,1011.294
2023-03-17T04:51:46.872Z,1011.283
2023-03-17T04:52:16.868Z,1011.265
2023-03-17T04:52:46.875Z,1011.257
2023-03-17T04:53:16.876Z,1011.242
2023-03-17T04:53:46.880Z,1011.245
2023-03-17T04:54:16.877Z,1011.252
2023-03-17T04:54:46.896Z,1011.255
2023-03-17T04:55:16.872Z,1011.276
2023-03-17T04:55:46.878Z,1011.304
2023-03-17T04:56:16.892Z,1011.299
2023-03-17T04:56:46.873Z,1011.28
2023-03-17T04:57:16.880Z,1011.264
2023-03-17T04:57:46.892Z,1011.273
2023-03-17T04:58:29.931Z,1011.255
2023-03-17T04:58:47.788Z,1011.249
2023-03-17T04:59:16.881Z,1011.245
2023-03-17T04:59:46.887Z,1011.247
2023-03-17T05:00:16.874Z,1011.247
2023-03-17T05:00:46.918Z,1011.245
2023-03-17T05:01:16.890Z,1011.252
2023-03-17T05:01:46.874Z,1011.24
2023-03-17T05:02:16.924Z,1011.219
2023-03-17T05:02:46.875Z,1011.2
2023-03-17T05:03:26.398Z,1011.185
2023-03-17T05:03:47.921Z,1011.193
2023-03-17T05:04:30.508Z,1011.197
2023-03-17T05:04:47.643Z,1011.198
2023-03-17T05:05:16.886Z,1011.19
2023-03-17T05:05:46.877Z,1011.181
2023-03-17T05:06:16.881Z,1011.174
2023-03-17T05:06:46.873Z,1011.173
2023-03-17T05:07:16.878Z,1011.186
2023-03-17T05:07:46.879Z,1011.19
2023-03-17T05:08:16.876Z,1011.191
2023-03-17T05:08:46.881Z,1011.184
2023-03-17T05:09:16.875Z,1011.156
2023-03-17T05:09:46.879Z,1011.142
2023-03-17T05:10:16.916Z,1011.117
2023-03-17T05:10:46.877Z,1011.133
2023-03-17T05:11:16.881Z,1011.144
2023-03-17T05:11:46.877Z,1011.138
2023-03-17T05:12:16.878Z,1011.114
2023-03-17T05:12:46.876Z,1011.091
2023-03-17T05:13:16.882Z,1011.073
2023-03-17T05:13:46.879Z,1011.064
2023-03-17T05:14:16.887Z,1011.056
2023-03-17T05:14:46.881Z,1011.055
2023-03-17T05:15:16.881Z,1011.077
2023-03-17T05:15:46.872Z,1011.064
2023-03-17T05:16:16.970Z,1011.063
2023-03-17T05:16:46.902Z,1011.055
2023-03-17T05:17:16.883Z,1011.046
2023-03-17T05:17:46.877Z,1011.03
2023-03-17T05:18:16.888Z,1011
2023-03-17T05:18:46.877Z,1010.993
2023-03-17T05:19:16.881Z,1010.971
2023-03-17T05:19:46.889Z,1010.94
2023-03-17T05:20:16.882Z,1010.916
2023-03-17T05:20:46.879Z,1010.89
2023-03-17T05:21:16.876Z,1010.881
2023-03-17T05:21:46.878Z,1010.888
2023-03-17T05:22:16.885Z,1010.892
2023-03-17T05:22:46.877Z,1010.919
2023-03-17T05:23:16.877Z,1010.915
2023-03-17T05:23:46.878Z,1010.908
2023-03-17T05:24:16.914Z,1010.893
2023-03-17T05:24:46.879Z,1010.893
2023-03-17T05:25:16.924Z,1010.882
2023-03-17T05:25:46.926Z,1010.901
2023-03-17T05:26:16.880Z,1010.924
2023-03-17T05:26:46.917Z,1010.926
2023-03-17T05:27:16.890Z,1010.938
2023-03-17T05:27:46.888Z,1010.959
2023-03-17T05:28:16.922Z,1010.973
2023-03-17T05:28:46.924Z,1010.954
2023-03-17T05:29:16.879Z,1010.958
2023-03-17T05:29:46.884Z,1010.949
2023-03-17T05:30:16.886Z,1010.934
2023-03-17T05:30:46.919Z,1010.925
2023-03-17T05:31:16.896Z,1010.923
2023-03-17T05:31:46.881Z,1010.921
2023-03-17T05:32:16.878Z,1010.901
2023-03-17T05:32:46.974Z,1010.907
2023-03-17T05:33:16.882Z,1010.894
2023-03-17T05:33:46.889Z,1010.909
2023-03-17T05:34:16.887Z,1010.917
2023-03-17T05:34:46.880Z,1010.922
2023-03-17T05:35:16.880Z,1010.925
2023-03-17T05:35:46.914Z,1010.924
2023-03-17T05:36:16.909Z,1010.915
2023-03-17T05:36:46.885Z,1010.926
2023-03-17T05:37:16.884Z,1010.921
2023-03-17T05:37:46.881Z,1010.928
2023-03-17T05:38:16.907Z,1010.935
2023-03-17T05:38:46.880Z,1010.922
2023-03-17T05:39:16.884Z,1010.896
2023-03-17T05:39:46.898Z,1010.872
2023-03-17T05:40:16.888Z,1010.85
2023-03-17T05:40:46.881Z,1010.817
2023-03-17T05:41:16.885Z,1010.791
2023-03-17T05:41:46.887Z,1010.792
2023-03-17T05:42:16.907Z,1010.778
2023-03-17T05:42:46.885Z,1010.775
2023-03-17T05:43:16.896Z,1010.777
2023-03-17T05:43:46.995Z,1010.79
2023-03-17T05:44:16.915Z,1010.799
2023-03-17T05:44:46.886Z,1010.821
2023-03-17T05:45:16.884Z,1010.874
2023-03-17T05:45:46.903Z,1010.897
2023-03-17T05:46:19.804Z,1010.91
2023-03-17T05:46:48.028Z,1010.902
2023-03-17T05:47:16.893Z,1010.901
2023-03-17T05:47:46.887Z,1010.901
2023-03-17T05:48:16.888Z,1010.9
2023-03-17T05:48:46.906Z,1010.9
2023-03-17T05:49:16.894Z,1010.888
2023-03-17T05:49:46.902Z,1010.897
2023-03-17T05:50:16.896Z,1010.885
2023-03-17T05:50:46.890Z,1010.88
2023-03-17T05:51:16.890Z,1010.868
2023-03-17T05:51:46.893Z,1010.865
2023-03-17T05:52:16.885Z,1010.867
2023-03-17T05:52:46.886Z,1010.866
2023-03-17T05:53:16.893Z,1010.869
2023-03-17T05:53:46.889Z,1010.876
2023-03-17T05:54:16.884Z,1010.881
2023-03-17T05:54:46.902Z,1010.91
2023-03-17T05:55:16.887Z,1010.906